Marble Canyon, AZ

1:07 PM MST on December 28, 2014 (GMT -0700)
Grand Canyon National Park | Change Station
CLOSE
Current Station
Airport
Location: Grand Canyon,
Elevation: 6608 ft
Nearby Weather Stations

Elev 6608 ft 35.95 °N, 112.15 °W | Updated 13 minutes ago

Clear
Clear
33 °F
Feels Like 26 °F
N
9
Wind Variable Wind from SW

Today
High -- | Low -- °F
--% Chance of Precip.
Yesterday
High -- | Low -- °F
Precip. -- in
7:38 AM 5:18 PM
Waxing Crescent, 51% visible
Pressure 30.22 in
Visibility 10.0 miles
Clouds Clear
Windchill 26 °F
Dew Point 7 °F
Humidity 34%
Rainfall 0.00 in
Snow Depth Not available.
UV 3 out of 12
Pollen .30 out of 12
Air Quality Not available.
Flu Activity Not available.
METAR KGCN 281954Z 22008KT 10SM CLR 01/M14 A3012 RMK AO2 SLP231 T00061139 $

More Conditions Fewer Conditions

Pressure 30.22 in
Visibility 10.0 miles
Clouds Clear
Windchill 26 °F
Dew Point 7 °F
Humidity 34%
Rainfall 0.00 in
Snow Depth Not available.
UV 3 out of 12
Pollen .30 out of 12
Air Quality Not available.
Flu Activity Not available.
METAR KGCN 281954Z 22008KT 10SM CLR 01/M14 A3012 RMK AO2 SLP231 T00061139 $

More Conditions Fewer Conditions

10-Day Weather Forecast

Almanac

Astronomy

Dec. 28, 2014 Rise Set
Actual Time
Civil Twilight
Nautical Twilight
Astronomical Twilight
Moon
Length of Visible Light
Length of Day
Tomorrow will be .
, % of the Moon is Illuminated

Today's Extremes

State Highs State Lows

Community

WunderPhotos

Upload Photos

1,781,407 photos uploaded!

WunderBlogs® & News

Nearby

Air Quality

  Air Quality AQ Index Pollutant
Not available.

Snow Depth

Station Depth Elevation

Earthquake Activity

City Distance Mag. Time & Date
Minimum magnitude displayed is 2.5.

Coastal Water Temperatures

Place Temperature

Nearby Weather Stations